Time;durP1;ratioP1;P1;durP2;ratioP2;P2;SDS_P1;SDS_P2;PMS_P1;PMS_P2;Temp;Humidity;BMP_temperature;BMP_pressure;BME280_temperature;BME280_humidity;BME280_pressure;Samples;Min_cycle;Max_cycle;Signal;HPM_P1;HPM_P2
2022/10/18 00:00:41;;;;;;;19.02;11.82;;;;;;;13.21;100.00;102368.53;6271738;22;20010;-93
2022/10/18 00:03:07;;;;;;;13.93;11.82;;;;;;;13.23;100.00;102368.50;6272866;22;20057;-94
2022/10/18 00:05:33;;;;;;;15.65;11.43;;;;;;;13.21;100.00;102358.69;6272094;22;20000;-94
2022/10/18 00:07:58;;;;;;;16.35;11.45;;;;;;;13.24;100.00;102363.06;6272025;22;20700;-93
2022/10/18 00:10:23;;;;;;;15.07;10.95;;;;;;;13.26;100.00;102360.34;6274569;22;20087;-93
2022/10/18 00:12:49;;;;;;;12.65;10.77;;;;;;;13.23;100.00;102355.13;6299669;22;20011;-94
2022/10/18 00:15:16;;;;;;;15.68;11.32;;;;;;;13.28;100.00;102354.00;6270877;22;20438;-93
2022/10/18 00:17:41;;;;;;;14.80;10.50;;;;;;;13.14;100.00;102325.09;6273918;22;20042;-93
2022/10/18 00:20:08;;;;;;;13.57;10.98;;;;;;;13.22;100.00;102338.19;6271620;22;20125;-93
2022/10/18 00:22:35;;;;;;;14.20;10.82;;;;;;;13.18;100.00;102325.84;6271009;22;20000;-94
2022/10/18 00:25:00;;;;;;;15.68;10.80;;;;;;;13.23;100.00;102341.75;6274121;22;20003;-95
2022/10/18 00:27:28;;;;;;;13.15;10.43;;;;;;;13.25;100.00;102347.91;6273567;22;20003;-94
2022/10/18 00:29:53;;;;;;;14.18;10.45;;;;;;;13.13;100.00;102322.50;6275349;22;20031;-94
2022/10/18 00:32:19;;;;;;;13.23;10.40;;;;;;;13.20;100.00;102332.00;6273676;22;20294;-94
2022/10/18 00:34:44;;;;;;;16.30;10.43;;;;;;;13.21;100.00;102333.75;6275574;22;20025;-95
2022/10/18 00:37:09;;;;;;;13.15;10.07;;;;;;;13.20;100.00;102335.53;6276038;22;20448;-94
2022/10/18 00:39:35;;;;;;;14.15;9.98;;;;;;;13.23;100.00;102339.06;6276958;22;20004;-94
2022/10/18 00:42:02;;;;;;;14.10;10.73;;;;;;;13.24;100.00;102340.81;6280689;22;20209;-94
2022/10/18 00:44:27;;;;;;;14.90;10.30;;;;;;;13.24;100.00;102344.34;6279650;22;20004;-93
2022/10/18 00:47:01;;;;;;;11.95;9.88;;;;;;;13.13;100.00;102330.50;6289536;22;19999;-93
2022/10/18 00:49:29;;;;;;;;;;;;;;;13.29;100.00;102357.53;6292385;22;20038;-94
2022/10/18 00:51:59;;;;;;;12.82;10.32;;;;;;;13.22;100.00;102359.56;6287164;22;20059;-94
2022/10/18 00:54:28;;;;;;;13.27;10.73;;;;;;;13.18;100.00;102349.91;6290178;22;19995;-94
2022/10/18 00:56:54;;;;;;;16.80;10.82;;;;;;;13.20;100.00;102356.94;6276774;22;20003;-94
2022/10/18 00:59:20;;;;;;;11.13;9.32;;;;;;;13.20;100.00;102345.38;6272792;22;20447;-94
2022/10/18 01:01:46;;;;;;;13.98;10.60;;;;;;;13.24;100.00;102359.53;6274400;22;20543;-94
2022/10/18 01:04:13;;;;;;;13.73;9.68;;;;;;;13.24;100.00;102351.50;6271683;22;20452;-94
2022/10/18 01:07:06;;;;;;;12.65;9.88;;;;;;;13.23;100.00;102358.66;6271945;22;20072;-94
2022/10/18 01:09:31;;;;;;;15.13;10.53;;;;;;;13.23;100.00;102355.13;6271344;22;20007;-94
2022/10/18 01:12:17;;;;;;;12.70;10.98;;;;;;;13.24;100.00;102362.19;6272757;22;20012;-94
2022/10/18 01:15:05;;;;;;;13.40;10.45;;;;;;;13.25;100.00;102370.19;6271992;22;20011;-94
2022/10/18 01:18:00;;;;;;;13.30;10.50;;;;;;;13.22;100.00;102362.25;6271407;22;20397;-93
2022/10/18 01:20:59;;;;;;;14.02;9.98;;;;;;;13.18;100.00;102358.81;6269293;22;20146;-94
2022/10/18 01:23:30;;;;;;;17.25;9.68;;;;;;;13.21;100.00;102364.03;6270782;22;20014;-93
2022/10/18 01:26:20;;;;;;;14.90;11.40;;;;;;;13.20;100.00;102370.28;6273872;22;20186;-95
2022/10/18 01:29:19;;;;;;;13.18;10.10;;;;;;;13.21;100.00;102369.38;6270661;22;20078;-94
2022/10/18 01:32:08;;;;;;;14.68;10.70;;;;;;;13.12;100.00;102351.00;6270082;22;20071;-94
2022/10/18 01:34:37;;;;;;;14.77;10.70;;;;;;;13.15;100.00;102358.03;6298465;22;20012;-94
2022/10/18 01:37:08;;;;;;;12.38;10.23;;;;;;;13.08;100.00;102341.34;6272013;22;20012;-94
2022/10/18 01:39:37;;;;;;;12.73;10.35;;;;;;;13.18;100.00;102364.16;6269588;22;20014;-94
2022/10/18 01:42:07;;;;;;;14.93;10.95;;;;;;;13.18;100.00;102371.31;6274368;22;20401;-94
2022/10/18 01:44:34;;;;;;;15.85;10.57;;;;;;;13.16;100.00;102367.78;6273722;22;20003;-93
2022/10/18 01:47:00;;;;;;;17.58;11.55;;;;;;;13.19;100.00;102367.69;6273281;22;20007;-94
2022/10/18 01:49:25;;;;;;;14.77;10.77;;;;;;;13.12;100.00;102358.16;6272306;22;20006;-93
2022/10/18 01:51:51;;;;;;;15.02;11.05;;;;;;;13.10;100.00;102352.88;6272779;22;20087;-93
2022/10/18 01:54:32;;;;;;;16.55;11.15;;;;;;;13.15;100.00;102364.25;6297518;22;20014;-93
2022/10/18 01:57:12;;;;;;;17.05;10.90;;;;;;;13.14;100.00;102361.66;6274073;22;20036;-94
2022/10/18 02:00:07;;;;;;;15.38;11.32;;;;;;;13.19;100.00;102368.56;6271669;22;20404;-94
2022/10/18 02:02:41;;;;;;;18.20;11.23;;;;;;;13.12;100.00;102360.81;6276115;22;19996;-94
2022/10/18 02:05:12;;;;;;;15.88;10.75;;;;;;;13.19;100.00;102370.38;6273227;22;20337;-94
2022/10/18 02:07:55;;;;;;;12.63;11.20;;;;;;;13.18;100.00;102368.63;6276709;22;20019;-94
2022/10/18 02:10:35;;;;;;;15.60;11.88;;;;;;;13.18;100.00;102361.47;6292735;22;20071;-94
2022/10/18 02:13:01;;;;;;;13.75;11.75;;;;;;;13.08;100.00;102349.38;6298116;22;20011;-94
2022/10/18 02:15:37;;;;;;;14.13;11.52;;;;;;;13.15;100.00;102358.03;6295833;22;19995;-94
2022/10/18 02:18:09;;;;;;;16.02;11.80;;;;;;;13.13;100.00;102360.78;6293517;22;19992;-94
2022/10/18 02:20:36;;;;;;;16.05;11.43;;;;;;;13.12;100.00;102360.81;6291670;22;20059;-95
2022/10/18 02:23:06;;;;;;;16.13;11.55;;;;;;;13.00;100.00;102342.56;6291517;22;20003;-94
2022/10/18 02:25:33;;;;;;;15.77;11.75;;;;;;;13.08;100.00;102362.72;6279808;22;20057;-94
2022/10/18 02:27:59;;;;;;;18.52;13.35;;;;;;;13.12;100.00;102372.38;6273803;22;20008;-94
2022/10/18 02:30:38;;;;;;;14.73;11.15;;;;;;;13.15;100.00;102379.44;6274306;22;20007;-95
2022/10/18 02:33:17;;;;;;;16.05;12.75;;;;;;;13.11;100.00;102376.00;6275710;22;20104;-95
2022/10/18 02:35:55;;;;;;;15.18;12.32;;;;;;;13.06;100.00;102359.25;6276442;22;20402;-93
2022/10/18 02:38:23;;;;;;;14.85;12.00;;;;;;;13.13;100.00;102367.94;6275216;22;20004;-96
2022/10/18 02:40:49;;;;;;;14.60;11.65;;;;;;;13.09;100.00;102360.97;6277005;22;20008;-94
2022/10/18 02:43:14;;;;;;;13.05;11.45;;;;;;;13.09;100.00;102358.28;6274259;22;20010;-95
2022/10/18 02:45:40;;;;;;;13.07;11.32;;;;;;;13.05;100.00;102367.34;6275416;22;20421;-94
2022/10/18 02:48:05;;;;;;;15.40;12.07;;;;;;;13.13;100.00;102379.50;6278003;22;19999;-94
2022/10/18 02:50:30;;;;;;;15.43;12.15;;;;;;;13.07;100.00;102365.47;6277326;22;20004;-92
2022/10/18 02:52:56;;;;;;;17.45;12.45;;;;;;;13.13;100.00;102374.16;6279550;22;20004;-93
2022/10/18 02:55:21;;;;;;;16.02;12.48;;;;;;;13.10;100.00;102365.38;6278402;22;20008;-94
2022/10/18 02:57:46;;;;;;;16.85;12.48;;;;;;;13.03;100.00;102355.81;6276688;22;20093;-94
2022/10/18 03:00:12;;;;;;;15.07;12.73;;;;;;;13.09;100.00;102367.19;6274977;22;19999;-94
2022/10/18 03:02:37;;;;;;;16.63;11.95;;;;;;;13.13;100.00;102375.97;6275690;22;20452;-95
2022/10/18 03:05:03;;;;;;;21.50;13.63;;;;;;;13.14;100.00;102372.34;6274151;22;20000;-94
2022/10/18 03:07:29;;;;;;;21.88;14.50;;;;;;;13.15;100.00;102377.63;6273599;22;20023;-94
2022/10/18 03:09:54;;;;;;;17.00;13.60;;;;;;;13.14;100.00;102372.34;6272763;22;20590;-94
2022/10/18 03:12:19;;;;;;;17.48;13.27;;;;;;;13.09;100.00;102368.97;6274060;22;20007;-95
2022/10/18 03:14:44;;;;;;;16.08;13.05;;;;;;;13.11;100.00;102372.44;6274468;22;20500;-93
2022/10/18 03:17:10;;;;;;;16.20;12.50;;;;;;;13.10;100.00;102374.25;6274929;22;20082;-94
2022/10/18 03:19:37;;;;;;;18.98;13.00;;;;;;;13.10;100.00;102373.38;6275791;22;20007;-95
2022/10/18 03:22:03;;;;;;;19.00;12.52;;;;;;;13.00;100.00;102362.19;6276778;22;20027;-94
2022/10/18 03:24:28;;;;;;;17.30;13.35;;;;;;;13.09;100.00;102374.31;6276505;22;20003;-95
2022/10/18 03:26:53;;;;;;;15.75;13.60;;;;;;;13.00;100.00;102363.94;6274590;22;20031;-95
2022/10/18 03:29:18;;;;;;;18.98;14.98;;;;;;;13.08;100.00;102372.56;6278015;22;20011;-94
2022/10/18 03:31:44;;;;;;;16.80;13.35;;;;;;;13.09;100.00;102379.66;6276659;22;20008;-95
2022/10/18 03:34:09;;;;;;;20.67;15.52;;;;;;;13.08;100.00;102392.13;6276832;22;20424;-94
2022/10/18 03:36:35;;;;;;;24.40;17.17;;;;;;;13.03;100.00;102374.53;6296854;22;19991;-94
2022/10/18 03:39:00;;;;;;;24.50;15.95;;;;;;;13.11;100.00;102389.34;6301050;22;20019;-94
2022/10/18 03:41:26;;;;;;;27.83;18.33;;;;;;;13.03;100.00;102371.84;6300773;22;20008;-94
2022/10/18 03:43:51;;;;;;;23.48;17.90;;;;;;;13.12;100.00;102390.22;6300808;22;20052;-93
2022/10/18 03:46:17;;;;;;;24.20;18.08;;;;;;;13.11;100.00;102389.34;6299979;22;20030;-94
2022/10/18 03:48:42;;;;;;;27.52;20.00;;;;;;;13.09;100.00;102382.34;6299395;22;19995;-94
2022/10/18 03:51:07;;;;;;;29.88;21.67;;;;;;;13.10;100.00;102376.94;6300137;22;19995;-95
2022/10/18 03:53:32;;;;;;;31.75;21.50;;;;;;;13.04;100.00;102366.47;6285125;22;20038;-95
2022/10/18 03:55:58;;;;;;;30.83;23.45;;;;;;;13.07;100.00;102371.69;6276391;22;20087;-95
2022/10/18 03:58:23;;;;;;;35.05;24.80;;;;;;;13.06;100.00;102369.09;6274269;22;20019;-94
2022/10/18 04:00:52;;;;;;;38.25;26.08;;;;;;;13.07;100.00;102365.47;6274674;22;20332;-95
2022/10/18 04:03:19;;;;;;;36.90;26.38;;;;;;;13.10;100.00;102378.72;6275102;22;20007;-94
2022/10/18 04:05:46;;;;;;;36.67;25.63;;;;;;;13.07;100.00;102378.84;6276690;22;20003;-94
2022/10/18 04:08:11;;;;;;;36.70;26.38;;;;;;;13.00;100.00;102361.28;6273494;22;20021;-94
2022/10/18 04:10:37;;;;;;;39.72;26.50;;;;;;;13.04;100.00;102371.81;6274729;22;20003;-95
2022/10/18 04:13:03;;;;;;;33.70;25.15;;;;;;;12.96;100.00;102363.22;6274720;22;20015;-95
2022/10/18 04:15:29;;;;;;;34.72;24.67;;;;;;;12.94;100.00;102357.91;6277196;22;20353;-94
2022/10/18 04:17:55;;;;;;;35.28;24.55;;;;;;;12.88;100.00;102358.16;6275827;22;19996;-93
2022/10/18 04:20:21;;;;;;;32.35;24.75;;;;;;;12.89;100.00;102370.56;6273212;22;20027;-94
2022/10/18 04:22:47;;;;;;;35.38;23.52;;;;;;;12.86;100.00;102372.47;6274684;22;20425;-94
2022/10/18 04:25:13;;;;;;;32.30;23.13;;;;;;;12.80;100.00;102378.94;6274387;22;20426;-94
2022/10/18 04:27:38;;;;;;;31.38;23.42;;;;;;;12.78;100.00;102387.91;6274514;22;20000;-95
2022/10/18 04:30:04;;;;;;;38.95;26.73;;;;;;;12.77;100.00;102381.69;6272077;22;20447;-95
2022/10/18 04:32:29;;;;;;;35.30;24.35;;;;;;;12.72;100.00;102381.00;6273282;22;20004;-94
2022/10/18 04:34:55;;;;;;;35.90;25.08;;;;;;;12.65;100.00;102376.78;6272663;22;20010;-94
2022/10/18 04:37:20;;;;;;;38.60;26.40;;;;;;;12.68;100.00;102376.69;6271813;22;20004;-95
2022/10/18 04:39:47;;;;;;;41.05;25.42;;;;;;;12.62;100.00;102377.78;6271276;22;20004;-94
2022/10/18 04:42:13;;;;;;;32.55;23.17;;;;;;;12.65;100.00;102387.47;6273260;22;20388;-95
2022/10/18 04:44:38;;;;;;;31.75;23.45;;;;;;;12.57;100.00;102381.53;6274468;22;20057;-94
2022/10/18 04:47:04;;;;;;;31.05;23.98;;;;;;;12.54;100.00;102365.59;6271852;22;20000;-94
2022/10/18 04:49:29;;;;;;;34.72;24.70;;;;;;;12.56;100.00;102390.47;6274107;22;20004;-94
2022/10/18 04:51:54;;;;;;;35.83;25.02;;;;;;;12.58;100.00;102389.50;6275754;22;20402;-95
2022/10/18 04:54:19;;;;;;;31.45;23.35;;;;;;;12.57;100.00;102394.88;6271080;22;20628;-94
2022/10/18 04:56:45;;;;;;;28.08;22.15;;;;;;;12.41;100.00;102373.16;6273973;22;20549;-93
2022/10/18 04:59:10;;;;;;;32.97;25.42;;;;;;;12.51;100.00;102395.09;6272868;22;20020;-92
2022/10/18 05:01:35;;;;;;;36.25;26.55;;;;;;;12.50;100.00;102406.69;6274480;22;20103;-94
2022/10/18 05:04:01;;;;;;;31.23;24.10;;;;;;;12.46;100.00;102400.59;6275447;22;19995;-94
2022/10/18 05:06:26;;;;;;;33.63;23.88;;;;;;;12.37;100.00;102383.09;6273023;22;20034;-95
2022/10/18 05:08:51;;;;;;;34.65;24.20;;;;;;;12.39;100.00;102385.69;6271752;22;19999;-93
2022/10/18 05:11:16;;;;;;;35.15;24.90;;;;;;;12.36;100.00;102385.78;6270879;22;20004;-93
2022/10/18 05:13:42;;;;;;;36.67;25.05;;;;;;;12.34;100.00;102385.88;6273154;22;20011;-94
2022/10/18 05:16:07;;;;;;;30.52;24.17;;;;;;;12.32;100.00;102392.16;6273787;22;20429;-94
2022/10/18 05:18:32;;;;;;;35.20;24.52;;;;;;;12.35;100.00;102414.31;6271752;22;20425;-95
2022/10/18 05:20:58;;;;;;;34.10;24.20;;;;;;;12.21;100.00;102393.41;6273730;22;20014;-94
2022/10/18 05:23:24;;;;;;;29.65;23.50;;;;;;;12.27;100.00;102397.66;6273982;22;20019;-94
2022/10/18 05:25:49;;;;;;;33.58;24.65;;;;;;;12.28;100.00;102402.06;6272978;22;20008;-94
2022/10/18 05:28:14;;;;;;;32.50;24.48;;;;;;;12.23;100.00;102395.16;6272001;22;20018;-94
2022/10/18 05:30:40;;;;;;;33.42;24.23;;;;;;;12.28;100.00;102412.75;6276037;22;20007;-94
2022/10/18 05:33:06;;;;;;;30.50;22.58;;;;;;;12.23;100.00;102408.50;6273334;22;20039;-94
2022/10/18 05:35:32;;;;;;;35.60;25.02;;;;;;;12.15;100.00;102396.25;6274308;22;20031;-95
2022/10/18 05:37:57;;;;;;;37.28;25.35;;;;;;;12.18;100.00;102389.97;6271841;22;20004;-95
2022/10/18 05:40:22;;;;;;;37.17;26.40;;;;;;;12.23;100.00;102406.69;6271058;22;20004;-94
2022/10/18 05:42:50;;;;;;;34.30;24.58;;;;;;;12.18;100.00;102405.97;6273600;22;20004;-93
2022/10/18 05:45:16;;;;;;;34.50;24.48;;;;;;;12.19;100.00;102418.41;6272991;22;20053;-96
2022/10/18 05:47:41;;;;;;;33.53;23.98;;;;;;;12.09;100.00;102398.28;6274270;22;20449;-94
2022/10/18 05:50:07;;;;;;;29.92;23.98;;;;;;;12.10;100.00;102398.22;6275734;22;20014;-94
2022/10/18 05:52:32;;;;;;;31.50;23.08;;;;;;;12.15;100.00;102406.06;6274474;22;20029;-92
2022/10/18 05:54:57;;;;;;;35.90;25.60;;;;;;;12.06;100.00;102393.03;6271514;22;20739;-92
2022/10/18 05:57:23;;;;;;;34.08;24.58;;;;;;;12.16;100.00;102424.72;6272084;22;20082;-92
2022/10/18 05:59:48;;;;;;;32.65;23.70;;;;;;;12.13;100.00;102424.81;6274134;22;20003;-93
2022/10/18 06:02:13;;;;;;;38.28;26.05;;;;;;;12.09;100.00;102433.84;6272479;22;20057;-92
2022/10/18 06:04:38;;;;;;;33.97;24.80;;;;;;;12.05;100.00;102423.31;6274584;22;20008;-91
2022/10/18 06:07:10;;;;;;;34.45;25.48;;;;;;;12.11;100.00;102433.78;6269425;22;20611;-93
2022/10/18 06:09:36;;;;;;;36.08;26.05;;;;;;;12.09;100.00;102432.97;6272886;22;20004;-92
2022/10/18 06:12:02;;;;;;;35.03;25.55;;;;;;;12.06;100.00;102438.41;6274369;22;20413;-93
2022/10/18 06:14:27;;;;;;;37.70;26.30;;;;;;;12.04;100.00;102434.88;6275412;22;20007;-93
2022/10/18 06:16:53;;;;;;;41.72;28.58;;;;;;;12.03;100.00;102428.69;6271906;22;20003;-94
2022/10/18 06:19:20;;;;;;;40.67;28.23;;;;;;;12.10;100.00;102445.38;6270543;22;19996;-94
2022/10/18 06:21:46;;;;;;;41.10;28.17;;;;;;;11.99;100.00;102426.16;6276819;22;19996;-95
2022/10/18 06:24:11;;;;;;;45.67;30.95;;;;;;;11.99;100.00;102426.16;6289525;22;20051;-93
2022/10/18 06:26:36;;;;;;;45.00;30.33;;;;;;;11.98;100.00;102438.63;6298286;22;20034;-93
2022/10/18 06:29:01;;;;;;;41.50;30.83;;;;;;;12.01;100.00;102440.34;6299640;22;20163;-93
2022/10/18 06:31:27;;;;;;;42.65;29.23;;;;;;;12.02;100.00;102447.41;6298983;22;19999;-94
2022/10/18 06:33:54;;;;;;;43.05;29.75;;;;;;;11.99;100.00;102448.38;6293699;22;20232;-95
2022/10/18 06:36:23;;;;;;;40.97;30.15;;;;;;;11.98;100.00;102451.09;6295795;22;20003;-94
2022/10/18 06:38:49;;;;;;;41.40;28.58;;;;;;;11.96;100.00;102438.69;6282092;22;19995;-95
2022/10/18 06:41:15;;;;;;;41.58;29.00;;;;;;;11.93;100.00;102448.59;6274304;22;20022;-94
2022/10/18 06:43:40;;;;;;;39.17;28.30;;;;;;;11.85;100.00;102426.59;6276153;22;19999;-95
2022/10/18 06:46:07;;;;;;;43.75;30.00;;;;;;;11.93;100.00;102452.13;6272288;22;20048;-92
2022/10/18 06:48:38;;;;;;;62.60;41.30;;;;;;;12.01;100.00;102461.69;6276389;22;20057;-93
2022/10/18 06:51:06;;;;;;;59.55;39.88;;;;;;;11.93;100.00;102448.59;6281408;22;20000;-93
2022/10/18 06:53:35;;;;;;;50.70;32.67;;;;;;;12.00;100.00;102459.94;6284165;22;20003;-93
2022/10/18 06:56:05;;;;;;;56.40;35.20;;;;;;;11.98;100.00;102459.97;6287641;22;20045;-94
2022/10/18 06:58:31;;;;;;;51.97;33.97;;;;;;;12.01;100.00;102473.25;6289090;22;20038;-94
2022/10/18 07:00:57;;;;;;;49.63;34.25;;;;;;;12.03;100.00;102467.84;6284210;22;20079;-94
2022/10/18 07:03:23;;;;;;;49.28;32.33;;;;;;;11.91;100.00;102464.66;6282434;22;20082;-92
2022/10/18 07:05:49;;;;;;;50.95;32.38;;;;;;;12.00;100.00;102486.59;6279286;22;20004;-92
2022/10/18 07:08:14;;;;;;;54.08;32.78;;;;;;;11.88;100.00;102467.41;6283329;22;20004;-93
2022/10/18 07:10:40;;;;;;;50.83;32.45;;;;;;;11.91;100.00;102467.31;6289821;22;20011;-93
2022/10/18 07:13:05;;;;;;;48.08;31.23;;;;;;;11.93;100.00;102485.94;6284623;22;20010;-94
2022/10/18 07:15:30;;;;;;;55.95;36.28;;;;;;;11.97;100.00;102495.59;6281628;22;20494;-93
2022/10/18 07:17:56;;;;;;;61.97;37.10;;;;;;;11.90;100.00;102484.22;6280804;22;20020;-93
2022/10/18 07:20:21;;;;;;;67.53;38.22;;;;;;;11.92;100.00;102495.75;6283957;22;20011;-90
2022/10/18 07:22:46;;;;;;;69.38;39.88;;;;;;;11.97;100.00;102498.28;6289979;22;20023;-91
2022/10/18 07:25:12;;;;;;;58.00;36.63;;;;;;;11.86;100.00;102489.69;6278474;22;20008;-91
2022/10/18 07:27:40;;;;;;;61.35;36.75;;;;;;;11.84;100.00;102503.09;6271586;22;20329;-92
2022/10/18 07:30:07;;;;;;;60.97;38.45;;;;;;;11.92;100.00;102517.09;6272626;22;20018;-92
2022/10/18 07:32:33;;;;;;;62.60;36.53;;;;;;;11.88;100.00;102510.09;6278708;22;20497;-92
2022/10/18 07:34:58;;;;;;;76.30;40.67;;;;;;;12.16;100.00;102525.25;6279317;22;20008;-92
2022/10/18 07:37:24;;;;;;;85.25;44.30;;;;;;;12.31;100.00;102522.13;6277625;22;20000;-92
2022/10/18 07:39:49;;;;;;;94.93;47.42;;;;;;;12.43;100.00;102519.06;6276738;22;20003;-93
2022/10/18 07:42:14;;;;;;;109.35;46.22;;;;;;;12.51;100.00;102528.63;6276147;22;20035;-93
2022/10/18 07:44:39;;;;;;;100.28;46.20;;;;;;;12.63;100.00;102544.28;6278524;22;20008;-92
2022/10/18 07:47:05;;;;;;;104.68;45.55;;;;;;;12.80;100.00;102549.06;6276604;22;20050;-92
2022/10/18 07:49:30;;;;;;;102.95;45.92;;;;;;;12.90;100.00;102551.34;6276635;22;20053;-92
2022/10/18 07:51:55;;;;;;;103.90;45.65;;;;;;;12.93;100.00;102540.56;6276372;22;20075;-91
2022/10/18 07:54:21;;;;;;;99.25;44.78;;;;;;;13.10;100.00;102556.03;6276269;22;20008;-91
2022/10/18 07:56:47;;;;;;;87.10;43.55;;;;;;;13.18;100.00;102564.69;6273932;22;20444;-90
2022/10/18 07:59:12;;;;;;;79.70;38.60;;;;;;;13.16;100.00;102568.31;6275146;22;20515;-92
2022/10/18 08:01:38;;;;;;;72.25;36.33;;;;;;;13.18;100.00;102562.00;6275062;22;20000;-92
2022/10/18 08:04:03;;;;;;;68.40;34.85;;;;;;;13.32;100.00;102574.91;6273414;22;20016;-92
2022/10/18 08:06:29;;;;;;;69.68;33.35;;;;;;;13.34;100.00;102582.91;6273966;22;20008;-92
2022/10/18 08:08:54;;;;;;;55.00;31.83;;;;;;;13.27;100.00;102576.00;6277408;22;20440;-94
2022/10/18 08:11:24;;;;;;;56.85;32.20;;;;;;;13.29;100.00;102569.66;6275547;22;20000;-92
2022/10/18 08:13:51;;;;;;;57.17;31.17;;;;;;;13.36;100.00;102581.91;6274953;22;20065;-92
2022/10/18 08:16:19;;;;;;;50.50;30.80;;;;;;;13.31;100.00;102569.63;6274693;22;20455;-92
2022/10/18 08:18:44;;;;;;;51.45;31.17;;;;;;;13.47;100.00;102594.91;6275350;22;20008;-92
2022/10/18 08:21:12;;;;;;;47.00;30.35;;;;;;;13.56;100.00;102604.41;6274333;22;20008;-92
2022/10/18 08:23:38;;;;;;;55.33;30.85;;;;;;;13.81;100.00;102602.59;6269044;22;20073;-91
2022/10/18 08:26:05;;;;;;;46.92;29.17;;;;;;;14.07;100.00;102604.31;6271333;22;20000;-90
2022/10/18 08:28:31;;;;;;;46.13;29.23;;;;;;;14.20;100.00;102586.84;6276106;22;20070;-91
2022/10/18 08:30:56;;;;;;;34.22;23.67;;;;;;;14.23;100.00;102596.56;6272091;22;20019;-92
2022/10/18 08:33:22;;;;;;;34.50;23.83;;;;;;;14.18;100.00;102620.00;6274493;22;20303;-91
2022/10/18 08:35:55;;;;;;;31.17;20.27;;;;;;;13.90;100.00;102606.75;6276363;22;20012;-92
2022/10/18 08:38:20;;;;;;;36.97;22.33;;;;;;;13.76;100.00;102609.06;6277973;22;20004;-91
2022/10/18 08:40:46;;;;;;;31.30;22.52;;;;;;;13.83;100.00;102615.91;6274679;22;20004;-91
2022/10/18 08:43:32;;;;;;;33.65;23.02;;;;;;;13.83;100.00;102614.13;6275047;22;20003;-90
2022/10/18 08:45:58;;;;;;;35.20;23.23;;;;;;;13.89;100.00;102619.25;6273992;22;20018;-90
2022/10/18 08:48:37;;;;;;;32.83;23.23;;;;;;;13.82;100.00;102617.72;6271187;22;20078;-91
2022/10/18 08:51:05;;;;;;;40.95;25.85;;;;;;;13.75;100.00;102613.50;6276050;22;20013;-90
2022/10/18 08:53:42;;;;;;;41.55;26.42;;;;;;;13.78;100.00;102616.09;6273724;22;20444;-92
2022/10/18 08:56:15;;;;;;;37.22;27.05;;;;;;;13.94;100.00;102625.31;6272479;22;20026;-92
2022/10/18 08:58:43;;;;;;;40.78;27.40;;;;;;;14.03;100.00;102609.84;6275960;22;20012;-92
2022/10/18 09:01:27;;;;;;;36.58;26.60;;;;;;;14.31;100.00;102620.41;6273787;22;20032;-91
2022/10/18 09:04:16;;;;;;;38.17;26.77;;;;;;;14.50;100.00;102632.16;6275365;22;19987;-91
2022/10/18 09:06:52;;;;;;;39.42;28.77;;;;;;;14.97;100.00;102632.09;6289763;22;20018;-91
2022/10/18 09:09:38;;;;;;;37.78;27.40;;;;;;;15.20;100.00;102629.31;6298404;22;19996;-90
2022/10/18 09:12:34;;;;;;;33.53;25.38;;;;;;;15.02;100.00;102605.09;6297216;22;20004;-90
2022/10/18 09:15:17;;;;;;;35.03;24.60;;;;;;;14.81;100.00;102621.13;6295964;22;20023;-90
2022/10/18 09:17:56;;;;;;;33.60;25.50;;;;;;;14.72;100.00;102634.03;6295611;22;20008;-91
2022/10/18 09:20:27;;;;;;;37.85;26.13;;;;;;;14.64;100.00;102637.00;6293592;22;20411;-91
2022/10/18 09:23:06;;;;;;;39.67;26.95;;;;;;;14.64;100.00;102632.50;6300632;22;20038;-91
2022/10/18 09:25:39;;;;;;;42.35;27.98;;;;;;;14.48;100.00;102607.22;6297071;22;20051;-91
2022/10/18 09:28:29;;;;;;;39.90;27.65;;;;;;;14.47;100.00;102621.56;6294179;22;20020;-91
2022/10/18 09:31:17;;;;;;;35.67;27.52;;;;;;;14.38;100.00;102617.44;6283056;22;20078;-90
2022/10/18 09:34:11;;;;;;;38.08;28.65;;;;;;;14.57;100.00;102628.31;6272835;22;20007;-91
2022/10/18 09:36:37;;;;;;;36.92;27.02;;;;;;;14.78;100.00;102631.09;6209082;23;20020;-92
2022/10/18 09:39:13;;;;;;;41.85;27.02;;;;;;;14.99;100.00;102622.16;6183834;23;20015;-91
2022/10/18 09:41:50;;;;;;;36.92;25.38;;;;;;;15.06;100.00;102628.16;6208846;23;20008;-91
2022/10/18 09:44:26;;;;;;;32.67;24.92;;;;;;;15.10;100.00;102643.19;6207780;23;20008;-89
2022/10/18 09:47:17;;;;;;;32.55;23.60;;;;;;;15.24;100.00;102643.47;6208765;23;20001;-90
2022/10/18 09:49:51;;;;;;;29.17;22.08;;;;;;;15.32;100.00;102638.66;6220540;23;20052;-90
2022/10/18 09:52:23;;;;;;;32.20;22.88;;;;;;;15.44;100.00;102622.03;6223020;23;20012;-90
2022/10/18 09:54:54;;;;;;;29.90;21.38;;;;;;;16.12;100.00;102632.50;6214952;23;20156;-90
2022/10/18 09:57:51;;;;;;;28.25;21.27;;;;;;;17.16;98.26;102639.16;6217441;23;20005;-90
2022/10/18 10:00:30;;;;;;;28.52;19.48;;;;;;;18.42;91.63;102617.25;6206075;23;20018;-90
2022/10/18 10:02:56;;;;;;;27.08;19.35;;;;;;;19.70;81.42;102632.34;6207237;23;20009;-91
2022/10/18 10:05:21;;;;;;;23.73;17.08;;;;;;;21.19;76.87;102618.22;6181109;23;19996;-90
2022/10/18 10:07:47;;;;;;;20.38;16.02;;;;;;;22.47;69.94;102638.19;6210662;23;20474;-90
2022/10/18 10:10:16;;;;;;;21.45;15.60;;;;;;;23.26;67.19;102639.53;6210829;22;20012;-90
2022/10/18 10:12:41;;;;;;;21.92;14.43;;;;;;;24.15;64.62;102632.59;6216085;22;20067;-91
2022/10/18 10:15:21;;;;;;;21.73;14.35;;;;;;;24.82;61.71;102635.28;6274658;22;20015;-91
2022/10/18 10:18:18;;;;;;;17.77;12.70;;;;;;;25.70;66.53;102636.91;6274062;22;20633;-91
2022/10/18 10:21:04;;;;;;;18.10;13.60;;;;;;;24.58;59.73;102640.06;6275084;22;20425;-91
2022/10/18 10:23:36;;;;;;;17.25;13.07;;;;;;;23.11;63.60;102632.56;6273236;22;20012;-91
2022/10/18 10:26:20;;;;;;;18.50;13.25;;;;;;;23.20;70.56;102629.16;6273773;22;20507;-92
2022/10/18 10:28:47;;;;;;;17.00;13.30;;;;;;;23.51;62.54;102613.19;6270754;22;20030;-92
2022/10/18 10:31:36;;;;;;;17.45;12.35;;;;;;;25.03;68.69;102615.41;6272474;22;20034;-93
2022/10/18 10:34:11;;;;;;;15.50;10.27;;;;;;;26.08;56.51;102638.16;6271233;22;20003;-92
2022/10/18 10:36:48;;;;;;;17.58;9.43;;;;;;;26.75;55.71;102625.75;6273285;22;20418;-91
2022/10/18 10:39:17;;;;;;;18.88;9.63;;;;;;;27.23;49.37;102634.03;6271425;22;20017;-91
2022/10/18 10:41:47;;;;;;;13.13;9.00;;;;;;;27.79;50.00;102649.69;6272872;22;20003;-94
2022/10/18 10:44:15;;;;;;;15.02;8.82;;;;;;;28.52;46.64;102654.50;6272181;22;20008;-92
2022/10/18 10:46:40;;;;;;;15.00;8.75;;;;;;;29.04;45.02;102650.16;6271891;22;20070;-91
2022/10/18 10:49:26;;;;;;;15.27;8.18;;;;;;;29.72;49.51;102660.56;6271574;22;20100;-92
2022/10/18 10:51:59;;;;;;;13.70;8.13;;;;;;;29.53;45.62;102658.84;6269556;22;20008;-90
2022/10/18 10:54:26;;;;;;;15.23;8.60;;;;;;;29.77;41.87;102671.91;6270270;22;20031;-92
2022/10/18 10:57:11;;;;;;;14.57;8.88;;;;;;;30.16;42.02;102668.75;6270158;22;20004;-91
2022/10/18 10:59:44;;;;;;;17.45;9.45;;;;;;;29.78;45.51;102654.44;6270911;22;20030;-92
2022/10/18 11:02:16;;;;;;;14.88;8.85;;;;;;;30.16;44.81;102662.41;6270752;22;20004;-91
2022/10/18 11:04:43;;;;;;;13.93;8.50;;;;;;;30.59;39.92;102660.53;6270997;22;20050;-90
2022/10/18 11:07:08;;;;;;;13.98;8.27;;;;;;;30.47;37.47;102674.59;6271924;22;20022;-91
2022/10/18 11:09:53;;;;;;;14.30;8.43;;;;;;;30.74;39.14;102680.91;6272424;22;20364;-90
2022/10/18 11:12:38;;;;;;;14.70;9.02;;;;;;;31.15;44.81;102662.63;6272482;22;20226;-91
2022/10/18 11:15:16;;;;;;;12.68;8.73;;;;;;;30.86;40.38;102681.47;6273938;22;20042;-90